sensor_id;sensor_type;location;lat;lon;timestamp;P1;durP1;ratioP1;P2;durP2;ratioP2
27365;SDS011;14837;57.148;-2.144;2022-10-17T00:02:24;8.18;;;2.65;;
27365;SDS011;14837;57.148;-2.144;2022-10-17T00:04:51;8.85;;;2.28;;
27365;SDS011;14837;57.148;-2.144;2022-10-17T00:07:17;3.60;;;1.70;;
27365;SDS011;14837;57.148;-2.144;2022-10-17T00:09:44;6.32;;;2.00;;
27365;SDS011;14837;57.148;-2.144;2022-10-17T00:12:10;9.60;;;2.42;;
27365;SDS011;14837;57.148;-2.144;2022-10-17T00:14:37;6.20;;;2.15;;
27365;SDS011;14837;57.148;-2.144;2022-10-17T00:17:04;10.95;;;3.00;;
27365;SDS011;14837;57.148;-2.144;2022-10-17T00:19:31;5.80;;;2.58;;
27365;SDS011;14837;57.148;-2.144;2022-10-17T00:21:57;5.72;;;2.05;;
27365;SDS011;14837;57.148;-2.144;2022-10-17T00:24:24;7.43;;;2.45;;
27365;SDS011;14837;57.148;-2.144;2022-10-17T00:26:51;6.10;;;2.33;;
27365;SDS011;14837;57.148;-2.144;2022-10-17T00:29:17;7.90;;;2.13;;
27365;SDS011;14837;57.148;-2.144;2022-10-17T00:31:44;4.90;;;1.95;;
27365;SDS011;14837;57.148;-2.144;2022-10-17T00:34:11;6.85;;;2.05;;
27365;SDS011;14837;57.148;-2.144;2022-10-17T00:36:40;7.28;;;1.77;;
27365;SDS011;14837;57.148;-2.144;2022-10-17T00:39:08;6.47;;;1.70;;
27365;SDS011;14837;57.148;-2.144;2022-10-17T00:41:36;6.03;;;1.77;;
27365;SDS011;14837;57.148;-2.144;2022-10-17T00:46:57;3.75;;;1.50;;
27365;SDS011;14837;57.148;-2.144;2022-10-17T00:49:25;5.53;;;2.13;;
27365;SDS011;14837;57.148;-2.144;2022-10-17T00:51:56;6.18;;;1.15;;
27365;SDS011;14837;57.148;-2.144;2022-10-17T00:54:29;5.07;;;1.17;;
27365;SDS011;14837;57.148;-2.144;2022-10-17T00:56:57;2.43;;;0.80;;
27365;SDS011;14837;57.148;-2.144;2022-10-17T00:59:24;9.52;;;1.40;;
27365;SDS011;14837;57.148;-2.144;2022-10-17T01:04:28;5.53;;;1.70;;
27365;SDS011;14837;57.148;-2.144;2022-10-17T01:06:55;7.60;;;1.83;;
27365;SDS011;14837;57.148;-2.144;2022-10-17T01:09:22;7.38;;;1.75;;
27365;SDS011;14837;57.148;-2.144;2022-10-17T01:15:08;6.53;;;1.35;;
27365;SDS011;14837;57.148;-2.144;2022-10-17T01:27:46;4.03;;;1.33;;
27365;SDS011;14837;57.148;-2.144;2022-10-17T01:35:52;11.82;;;1.80;;
27365;SDS011;14837;57.148;-2.144;2022-10-17T01:38:21;6.85;;;2.17;;
27365;SDS011;14837;57.148;-2.144;2022-10-17T01:40:50;8.43;;;1.60;;
27365;SDS011;14837;57.148;-2.144;2022-10-17T01:43:23;9.25;;;2.20;;
27365;SDS011;14837;57.148;-2.144;2022-10-17T01:45:52;6.93;;;2.10;;
27365;SDS011;14837;57.148;-2.144;2022-10-17T01:48:21;10.32;;;2.25;;
27365;SDS011;14837;57.148;-2.144;2022-10-17T01:51:06;9.48;;;2.58;;
27365;SDS011;14837;57.148;-2.144;2022-10-17T01:53:35;8.38;;;2.15;;
27365;SDS011;14837;57.148;-2.144;2022-10-17T01:56:04;7.60;;;2.13;;
27365;SDS011;14837;57.148;-2.144;2022-10-17T01:58:32;6.70;;;1.73;;
27365;SDS011;14837;57.148;-2.144;2022-10-17T02:01:02;7.90;;;2.17;;
27365;SDS011;14837;57.148;-2.144;2022-10-17T02:03:30;10.20;;;2.10;;
27365;SDS011;14837;57.148;-2.144;2022-10-17T02:05:57;8.40;;;2.20;;
27365;SDS011;14837;57.148;-2.144;2022-10-17T02:08:28;15.82;;;2.33;;
27365;SDS011;14837;57.148;-2.144;2022-10-17T02:11:00;9.30;;;2.60;;
27365;SDS011;14837;57.148;-2.144;2022-10-17T02:13:44;10.80;;;2.95;;
27365;SDS011;14837;57.148;-2.144;2022-10-17T02:16:23;16.40;;;2.78;;
27365;SDS011;14837;57.148;-2.144;2022-10-17T02:19:03;8.40;;;2.30;;
27365;SDS011;14837;57.148;-2.144;2022-10-17T02:26:37;13.93;;;3.72;;
27365;SDS011;14837;57.148;-2.144;2022-10-17T02:29:07;10.73;;;2.40;;
27365;SDS011;14837;57.148;-2.144;2022-10-17T02:31:39;7.25;;;2.30;;
27365;SDS011;14837;57.148;-2.144;2022-10-17T02:34:08;9.95;;;2.53;;
27365;SDS011;14837;57.148;-2.144;2022-10-17T02:36:41;13.20;;;2.92;;
27365;SDS011;14837;57.148;-2.144;2022-10-17T02:39:09;9.53;;;2.23;;
27365;SDS011;14837;57.148;-2.144;2022-10-17T02:41:37;15.40;;;3.30;;
27365;SDS011;14837;57.148;-2.144;2022-10-17T02:44:05;8.43;;;2.47;;
27365;SDS011;14837;57.148;-2.144;2022-10-17T02:46:32;10.40;;;2.70;;
27365;SDS011;14837;57.148;-2.144;2022-10-17T02:49:22;12.38;;;2.75;;
27365;SDS011;14837;57.148;-2.144;2022-10-17T02:51:56;10.80;;;2.50;;
27365;SDS011;14837;57.148;-2.144;2022-10-17T02:54:35;17.10;;;3.28;;
27365;SDS011;14837;57.148;-2.144;2022-10-17T02:59:29;12.80;;;3.45;;
27365;SDS011;14837;57.148;-2.144;2022-10-17T03:01:57;10.25;;;3.75;;
27365;SDS011;14837;57.148;-2.144;2022-10-17T03:04:23;12.18;;;3.70;;
27365;SDS011;14837;57.148;-2.144;2022-10-17T03:06:50;12.40;;;3.33;;
27365;SDS011;14837;57.148;-2.144;2022-10-17T03:09:16;12.30;;;3.38;;
27365;SDS011;14837;57.148;-2.144;2022-10-17T03:11:43;14.52;;;3.88;;
27365;SDS011;14837;57.148;-2.144;2022-10-17T03:14:09;16.75;;;3.83;;
27365;SDS011;14837;57.148;-2.144;2022-10-17T03:16:36;16.67;;;3.33;;
27365;SDS011;14837;57.148;-2.144;2022-10-17T03:19:02;21.52;;;4.50;;
27365;SDS011;14837;57.148;-2.144;2022-10-17T03:21:29;9.32;;;2.58;;
27365;SDS011;14837;57.148;-2.144;2022-10-17T03:23:55;14.63;;;3.22;;
27365;SDS011;14837;57.148;-2.144;2022-10-17T03:26:22;16.10;;;3.80;;
27365;SDS011;14837;57.148;-2.144;2022-10-17T03:28:48;17.45;;;3.28;;
27365;SDS011;14837;57.148;-2.144;2022-10-17T03:31:19;16.23;;;3.10;;
27365;SDS011;14837;57.148;-2.144;2022-10-17T03:33:46;13.30;;;3.17;;
27365;SDS011;14837;57.148;-2.144;2022-10-17T03:36:13;17.65;;;4.55;;
27365;SDS011;14837;57.148;-2.144;2022-10-17T03:38:40;13.10;;;3.88;;
27365;SDS011;14837;57.148;-2.144;2022-10-17T03:41:07;10.52;;;2.85;;
27365;SDS011;14837;57.148;-2.144;2022-10-17T03:43:33;15.55;;;4.22;;
27365;SDS011;14837;57.148;-2.144;2022-10-17T03:46:00;17.40;;;3.55;;
27365;SDS011;14837;57.148;-2.144;2022-10-17T03:48:28;14.45;;;3.20;;
27365;SDS011;14837;57.148;-2.144;2022-10-17T03:51:01;15.65;;;3.00;;
27365;SDS011;14837;57.148;-2.144;2022-10-17T03:53:28;18.63;;;4.28;;
27365;SDS011;14837;57.148;-2.144;2022-10-17T03:55:55;22.83;;;4.70;;
27365;SDS011;14837;57.148;-2.144;2022-10-17T03:58:21;16.48;;;3.42;;
27365;SDS011;14837;57.148;-2.144;2022-10-17T04:00:48;10.32;;;3.38;;
27365;SDS011;14837;57.148;-2.144;2022-10-17T04:03:14;13.77;;;3.10;;
27365;SDS011;14837;57.148;-2.144;2022-10-17T04:05:42;18.13;;;4.90;;
27365;SDS011;14837;57.148;-2.144;2022-10-17T04:08:09;14.55;;;3.15;;
27365;SDS011;14837;57.148;-2.144;2022-10-17T04:10:35;15.05;;;3.40;;
27365;SDS011;14837;57.148;-2.144;2022-10-17T04:13:02;15.90;;;3.75;;
27365;SDS011;14837;57.148;-2.144;2022-10-17T04:15:28;25.90;;;4.80;;
27365;SDS011;14837;57.148;-2.144;2022-10-17T04:17:55;9.98;;;3.25;;
27365;SDS011;14837;57.148;-2.144;2022-10-17T04:20:21;16.35;;;2.83;;
27365;SDS011;14837;57.148;-2.144;2022-10-17T04:22:48;19.80;;;3.40;;
27365;SDS011;14837;57.148;-2.144;2022-10-17T04:25:14;14.52;;;3.70;;
27365;SDS011;14837;57.148;-2.144;2022-10-17T04:27:41;12.73;;;2.65;;
27365;SDS011;14837;57.148;-2.144;2022-10-17T04:30:07;12.27;;;2.60;;
27365;SDS011;14837;57.148;-2.144;2022-10-17T04:32:37;13.15;;;2.63;;
27365;SDS011;14837;57.148;-2.144;2022-10-17T04:35:04;7.38;;;2.30;;
27365;SDS011;14837;57.148;-2.144;2022-10-17T04:37:31;5.78;;;1.95;;
27365;SDS011;14837;57.148;-2.144;2022-10-17T04:39:57;13.27;;;2.42;;
27365;SDS011;14837;57.148;-2.144;2022-10-17T04:42:24;9.63;;;2.03;;
27365;SDS011;14837;57.148;-2.144;2022-10-17T04:44:51;11.05;;;2.15;;
27365;SDS011;14837;57.148;-2.144;2022-10-17T04:47:17;10.48;;;2.83;;
27365;SDS011;14837;57.148;-2.144;2022-10-17T04:49:44;5.40;;;1.48;;
27365;SDS011;14837;57.148;-2.144;2022-10-17T04:52:10;9.20;;;2.05;;
27365;SDS011;14837;57.148;-2.144;2022-10-17T04:54:37;7.28;;;1.52;;
27365;SDS011;14837;57.148;-2.144;2022-10-17T04:57:04;4.70;;;2.15;;
27365;SDS011;14837;57.148;-2.144;2022-10-17T04:59:30;9.77;;;1.58;;
27365;SDS011;14837;57.148;-2.144;2022-10-17T05:01:56;13.35;;;3.78;;
27365;SDS011;14837;57.148;-2.144;2022-10-17T05:04:23;17.30;;;3.67;;
27365;SDS011;14837;57.148;-2.144;2022-10-17T05:06:50;10.18;;;2.83;;
27365;SDS011;14837;57.148;-2.144;2022-10-17T05:09:16;10.05;;;2.67;;
27365;SDS011;14837;57.148;-2.144;2022-10-17T05:11:43;15.88;;;4.00;;
27365;SDS011;14837;57.148;-2.144;2022-10-17T05:14:09;16.23;;;4.03;;
27365;SDS011;14837;57.148;-2.144;2022-10-17T05:16:36;20.25;;;4.50;;
27365;SDS011;14837;57.148;-2.144;2022-10-17T05:19:02;14.85;;;3.78;;
27365;SDS011;14837;57.148;-2.144;2022-10-17T05:21:30;12.63;;;3.38;;
27365;SDS011;14837;57.148;-2.144;2022-10-17T05:24:04;13.52;;;3.25;;
27365;SDS011;14837;57.148;-2.144;2022-10-17T05:26:31;13.02;;;3.88;;
27365;SDS011;14837;57.148;-2.144;2022-10-17T05:28:58;16.17;;;3.22;;
27365;SDS011;14837;57.148;-2.144;2022-10-17T05:31:25;14.68;;;4.38;;
27365;SDS011;14837;57.148;-2.144;2022-10-17T05:33:54;16.70;;;3.63;;
27365;SDS011;14837;57.148;-2.144;2022-10-17T05:36:21;13.25;;;4.28;;
27365;SDS011;14837;57.148;-2.144;2022-10-17T05:38:48;20.73;;;4.90;;
27365;SDS011;14837;57.148;-2.144;2022-10-17T05:41:16;12.27;;;3.92;;
27365;SDS011;14837;57.148;-2.144;2022-10-17T05:43:43;18.13;;;4.97;;
27365;SDS011;14837;57.148;-2.144;2022-10-17T05:46:10;17.48;;;3.80;;
27365;SDS011;14837;57.148;-2.144;2022-10-17T05:51:08;18.63;;;4.40;;
27365;SDS011;14837;57.148;-2.144;2022-10-17T05:53:36;8.52;;;2.83;;
27365;SDS011;14837;57.148;-2.144;2022-10-17T05:56:04;13.57;;;3.15;;
27365;SDS011;14837;57.148;-2.144;2022-10-17T05:58:31;10.77;;;3.33;;
27365;SDS011;14837;57.148;-2.144;2022-10-17T06:01:15;14.00;;;3.28;;
27365;SDS011;14837;57.148;-2.144;2022-10-17T06:03:42;14.73;;;3.22;;
27365;SDS011;14837;57.148;-2.144;2022-10-17T06:06:09;4.97;;;2.45;;
27365;SDS011;14837;57.148;-2.144;2022-10-17T06:08:36;17.00;;;3.55;;
27365;SDS011;14837;57.148;-2.144;2022-10-17T06:11:03;9.40;;;2.67;;
27365;SDS011;14837;57.148;-2.144;2022-10-17T06:13:35;8.23;;;2.50;;
27365;SDS011;14837;57.148;-2.144;2022-10-17T06:16:01;9.68;;;2.50;;
27365;SDS011;14837;57.148;-2.144;2022-10-17T06:18:28;11.20;;;2.05;;
27365;SDS011;14837;57.148;-2.144;2022-10-17T06:21:00;7.38;;;2.10;;
27365;SDS011;14837;57.148;-2.144;2022-10-17T06:23:27;6.53;;;1.90;;
27365;SDS011;14837;57.148;-2.144;2022-10-17T06:25:56;12.32;;;2.13;;
27365;SDS011;14837;57.148;-2.144;2022-10-17T06:28:23;9.02;;;1.95;;
27365;SDS011;14837;57.148;-2.144;2022-10-17T06:30:49;11.10;;;2.38;;
27365;SDS011;14837;57.148;-2.144;2022-10-17T06:33:16;6.10;;;2.10;;
27365;SDS011;14837;57.148;-2.144;2022-10-17T06:35:43;9.00;;;1.58;;
27365;SDS011;14837;57.148;-2.144;2022-10-17T06:38:09;8.40;;;2.28;;
27365;SDS011;14837;57.148;-2.144;2022-10-17T06:40:36;8.73;;;2.10;;
27365;SDS011;14837;57.148;-2.144;2022-10-17T06:43:02;8.63;;;2.08;;
27365;SDS011;14837;57.148;-2.144;2022-10-17T06:45:29;10.05;;;1.70;;
27365;SDS011;14837;57.148;-2.144;2022-10-17T06:47:55;5.18;;;1.85;;
27365;SDS011;14837;57.148;-2.144;2022-10-17T06:50:22;6.60;;;2.00;;
27365;SDS011;14837;57.148;-2.144;2022-10-17T06:52:51;8.48;;;2.58;;
27365;SDS011;14837;57.148;-2.144;2022-10-17T06:55:18;10.93;;;2.28;;
27365;SDS011;14837;57.148;-2.144;2022-10-17T06:57:48;3.70;;;1.38;;
27365;SDS011;14837;57.148;-2.144;2022-10-17T07:00:17;5.32;;;1.92;;
27365;SDS011;14837;57.148;-2.144;2022-10-17T07:02:43;5.70;;;1.83;;
27365;SDS011;14837;57.148;-2.144;2022-10-17T07:05:10;5.40;;;1.90;;
27365;SDS011;14837;57.148;-2.144;2022-10-17T07:07:36;3.53;;;1.63;;
27365;SDS011;14837;57.148;-2.144;2022-10-17T07:10:08;4.28;;;1.88;;
27365;SDS011;14837;57.148;-2.144;2022-10-17T07:12:35;6.93;;;2.17;;
27365;SDS011;14837;57.148;-2.144;2022-10-17T07:15:02;8.93;;;1.80;;
27365;SDS011;14837;57.148;-2.144;2022-10-17T07:17:29;4.72;;;1.42;;
27365;SDS011;14837;57.148;-2.144;2022-10-17T07:19:56;4.93;;;1.45;;
27365;SDS011;14837;57.148;-2.144;2022-10-17T07:22:23;6.68;;;1.80;;
27365;SDS011;14837;57.148;-2.144;2022-10-17T07:24:50;6.20;;;2.33;;
27365;SDS011;14837;57.148;-2.144;2022-10-17T07:27:16;5.38;;;1.30;;
27365;SDS011;14837;57.148;-2.144;2022-10-17T07:29:43;5.95;;;1.42;;
27365;SDS011;14837;57.148;-2.144;2022-10-17T07:32:09;4.47;;;1.70;;
27365;SDS011;14837;57.148;-2.144;2022-10-17T07:34:36;4.93;;;1.45;;
27365;SDS011;14837;57.148;-2.144;2022-10-17T07:37:02;3.97;;;2.15;;
27365;SDS011;14837;57.148;-2.144;2022-10-17T07:39:29;5.43;;;1.75;;
27365;SDS011;14837;57.148;-2.144;2022-10-17T07:41:55;4.78;;;1.45;;
27365;SDS011;14837;57.148;-2.144;2022-10-17T07:44:22;2.67;;;1.95;;
27365;SDS011;14837;57.148;-2.144;2022-10-17T07:46:48;6.43;;;1.83;;
27365;SDS011;14837;57.148;-2.144;2022-10-17T07:49:15;7.13;;;1.80;;
27365;SDS011;14837;57.148;-2.144;2022-10-17T07:51:41;2.05;;;1.25;;
27365;SDS011;14837;57.148;-2.144;2022-10-17T07:54:08;8.25;;;1.80;;
27365;SDS011;14837;57.148;-2.144;2022-10-17T07:56:35;2.38;;;1.75;;
27365;SDS011;14837;57.148;-2.144;2022-10-17T07:59:01;10.50;;;2.47;;
27365;SDS011;14837;57.148;-2.144;2022-10-17T08:01:33;5.32;;;1.90;;
27365;SDS011;14837;57.148;-2.144;2022-10-17T08:04:00;3.60;;;1.45;;
27365;SDS011;14837;57.148;-2.144;2022-10-17T08:06:26;4.43;;;1.45;;
27365;SDS011;14837;57.148;-2.144;2022-10-17T08:08:52;4.55;;;1.73;;
27365;SDS011;14837;57.148;-2.144;2022-10-17T08:11:20;4.22;;;2.08;;
27365;SDS011;14837;57.148;-2.144;2022-10-17T08:13:47;5.05;;;1.98;;
27365;SDS011;14837;57.148;-2.144;2022-10-17T08:16:14;3.08;;;1.42;;
27365;SDS011;14837;57.148;-2.144;2022-10-17T08:18:41;3.10;;;1.13;;
27365;SDS011;14837;57.148;-2.144;2022-10-17T08:21:08;5.10;;;1.92;;
27365;SDS011;14837;57.148;-2.144;2022-10-17T08:23:35;9.38;;;2.22;;
27365;SDS011;14837;57.148;-2.144;2022-10-17T08:26:10;8.93;;;2.22;;
27365;SDS011;14837;57.148;-2.144;2022-10-17T08:28:39;8.80;;;2.30;;
27365;SDS011;14837;57.148;-2.144;2022-10-17T08:31:06;8.60;;;1.75;;
27365;SDS011;14837;57.148;-2.144;2022-10-17T08:33:33;6.78;;;2.08;;
27365;SDS011;14837;57.148;-2.144;2022-10-17T08:36:00;5.93;;;1.63;;
27365;SDS011;14837;57.148;-2.144;2022-10-17T08:38:27;4.72;;;1.27;;
27365;SDS011;14837;57.148;-2.144;2022-10-17T08:41:02;5.30;;;1.40;;
27365;SDS011;14837;57.148;-2.144;2022-10-17T08:46:14;3.92;;;1.60;;
27365;SDS011;14837;57.148;-2.144;2022-10-17T08:48:41;7.20;;;1.80;;
27365;SDS011;14837;57.148;-2.144;2022-10-17T08:53:52;5.35;;;2.42;;
27365;SDS011;14837;57.148;-2.144;2022-10-17T08:56:22;14.90;;;2.35;;
27365;SDS011;14837;57.148;-2.144;2022-10-17T08:59:10;8.73;;;2.60;;
27365;SDS011;14837;57.148;-2.144;2022-10-17T09:06:37;8.73;;;2.30;;
27365;SDS011;14837;57.148;-2.144;2022-10-17T09:17:14;15.60;;;3.78;;
27365;SDS011;14837;57.148;-2.144;2022-10-17T09:22:17;11.48;;;4.15;;
27365;SDS011;14837;57.148;-2.144;2022-10-17T09:24:46;15.23;;;3.75;;
27365;SDS011;14837;57.148;-2.144;2022-10-17T09:27:19;16.80;;;4.55;;
27365;SDS011;14837;57.148;-2.144;2022-10-17T09:29:48;19.98;;;4.00;;
27365;SDS011;14837;57.148;-2.144;2022-10-17T09:32:21;23.95;;;5.43;;
27365;SDS011;14837;57.148;-2.144;2022-10-17T09:34:48;16.95;;;3.90;;
27365;SDS011;14837;57.148;-2.144;2022-10-17T09:37:16;15.43;;;4.80;;
27365;SDS011;14837;57.148;-2.144;2022-10-17T09:39:43;24.35;;;4.07;;
27365;SDS011;14837;57.148;-2.144;2022-10-17T09:42:13;11.77;;;3.20;;
27365;SDS011;14837;57.148;-2.144;2022-10-17T09:44:51;16.38;;;4.10;;
27365;SDS011;14837;57.148;-2.144;2022-10-17T09:47:27;16.40;;;4.30;;
27365;SDS011;14837;57.148;-2.144;2022-10-17T09:49:55;19.13;;;3.60;;
27365;SDS011;14837;57.148;-2.144;2022-10-17T09:52:30;14.00;;;3.85;;
27365;SDS011;14837;57.148;-2.144;2022-10-17T09:55:00;20.20;;;3.95;;
27365;SDS011;14837;57.148;-2.144;2022-10-17T09:57:27;15.30;;;4.55;;
27365;SDS011;14837;57.148;-2.144;2022-10-17T10:02:21;17.85;;;3.72;;
27365;SDS011;14837;57.148;-2.144;2022-10-17T10:04:52;14.65;;;4.07;;
27365;SDS011;14837;57.148;-2.144;2022-10-17T10:07:35;24.75;;;4.88;;
27365;SDS011;14837;57.148;-2.144;2022-10-17T10:10:02;10.48;;;3.03;;
27365;SDS011;14837;57.148;-2.144;2022-10-17T10:12:31;14.40;;;3.92;;
27365;SDS011;14837;57.148;-2.144;2022-10-17T10:14:58;13.95;;;3.63;;
27365;SDS011;14837;57.148;-2.144;2022-10-17T10:17:26;18.38;;;4.15;;
27365;SDS011;14837;57.148;-2.144;2022-10-17T10:19:53;15.43;;;3.85;;
27365;SDS011;14837;57.148;-2.144;2022-10-17T10:22:20;15.38;;;3.03;;
27365;SDS011;14837;57.148;-2.144;2022-10-17T10:27:34;14.35;;;4.47;;
27365;SDS011;14837;57.148;-2.144;2022-10-17T10:30:02;13.73;;;3.92;;
27365;SDS011;14837;57.148;-2.144;2022-10-17T10:32:30;21.77;;;4.50;;
27365;SDS011;14837;57.148;-2.144;2022-10-17T10:37:24;16.02;;;3.95;;
27365;SDS011;14837;57.148;-2.144;2022-10-17T10:39:53;12.55;;;4.38;;
27365;SDS011;14837;57.148;-2.144;2022-10-17T10:50:37;10.77;;;3.45;;
27365;SDS011;14837;57.148;-2.144;2022-10-17T10:55:50;16.13;;;4.18;;
27365;SDS011;14837;57.148;-2.144;2022-10-17T11:00:56;17.80;;;4.07;;
27365;SDS011;14837;57.148;-2.144;2022-10-17T11:03:34;11.68;;;3.60;;
27365;SDS011;14837;57.148;-2.144;2022-10-17T11:06:04;22.02;;;4.57;;
27365;SDS011;14837;57.148;-2.144;2022-10-17T11:08:39;9.90;;;3.20;;
27365;SDS011;14837;57.148;-2.144;2022-10-17T11:11:15;8.40;;;2.75;;
27365;SDS011;14837;57.148;-2.144;2022-10-17T11:13:46;12.50;;;3.20;;
27365;SDS011;14837;57.148;-2.144;2022-10-17T11:16:24;16.95;;;3.63;;
27365;SDS011;14837;57.148;-2.144;2022-10-17T11:18:56;11.05;;;3.38;;
27365;SDS011;14837;57.148;-2.144;2022-10-17T11:22:08;16.58;;;3.88;;
27365;SDS011;14837;57.148;-2.144;2022-10-17T11:24:17;19.40;;;4.25;;
27365;SDS011;14837;57.148;-2.144;2022-10-17T11:26:55;8.07;;;2.03;;
27365;SDS011;14837;57.148;-2.144;2022-10-17T11:29:26;9.02;;;2.40;;
27365;SDS011;14837;57.148;-2.144;2022-10-17T11:31:54;9.98;;;2.38;;
27365;SDS011;14837;57.148;-2.144;2022-10-17T11:34:24;11.55;;;2.65;;
27365;SDS011;14837;57.148;-2.144;2022-10-17T11:36:56;10.52;;;2.85;;
27365;SDS011;14837;57.148;-2.144;2022-10-17T11:42:14;12.52;;;4.07;;
27365;SDS011;14837;57.148;-2.144;2022-10-17T11:44:43;9.27;;;2.58;;
27365;SDS011;14837;57.148;-2.144;2022-10-17T11:47:18;12.32;;;2.60;;
27365;SDS011;14837;57.148;-2.144;2022-10-17T11:49:49;7.75;;;2.97;;
27365;SDS011;14837;57.148;-2.144;2022-10-17T11:53:19;7.45;;;1.80;;
27365;SDS011;14837;57.148;-2.144;2022-10-17T11:58:00;6.20;;;1.75;;
27365;SDS011;14837;57.148;-2.144;2022-10-17T12:00:34;6.30;;;1.77;;
27365;SDS011;14837;57.148;-2.144;2022-10-17T12:18:45;6.70;;;1.50;;
27365;SDS011;14837;57.148;-2.144;2022-10-17T12:21:12;6.68;;;1.60;;
27365;SDS011;14837;57.148;-2.144;2022-10-17T12:23:39;9.57;;;2.03;;
27365;SDS011;14837;57.148;-2.144;2022-10-17T12:26:07;9.27;;;1.80;;
27365;SDS011;14837;57.148;-2.144;2022-10-17T12:31:08;10.00;;;2.45;;
27365;SDS011;14837;57.148;-2.144;2022-10-17T12:34:13;7.25;;;2.72;;
27365;SDS011;14837;57.148;-2.144;2022-10-17T12:52:16;5.20;;;1.67;;
27365;SDS011;14837;57.148;-2.144;2022-10-17T12:54:44;8.73;;;2.30;;
27365;SDS011;14837;57.148;-2.144;2022-10-17T12:57:42;8.73;;;3.08;;
27365;SDS011;14837;57.148;-2.144;2022-10-17T13:00:18;6.85;;;1.77;;
27365;SDS011;14837;57.148;-2.144;2022-10-17T13:02:45;5.45;;;2.63;;
27365;SDS011;14837;57.148;-2.144;2022-10-17T13:05:28;10.25;;;1.88;;
27365;SDS011;14837;57.148;-2.144;2022-10-17T13:07:56;5.47;;;1.80;;
27365;SDS011;14837;57.148;-2.144;2022-10-17T13:10:26;6.32;;;2.03;;
27365;SDS011;14837;57.148;-2.144;2022-10-17T13:12:53;6.45;;;1.77;;
27365;SDS011;14837;57.148;-2.144;2022-10-17T13:15:23;5.95;;;1.52;;
27365;SDS011;14837;57.148;-2.144;2022-10-17T13:17:58;5.40;;;1.45;;
27365;SDS011;14837;57.148;-2.144;2022-10-17T13:20:25;5.68;;;1.67;;
27365;SDS011;14837;57.148;-2.144;2022-10-17T13:22:57;5.50;;;1.70;;
27365;SDS011;14837;57.148;-2.144;2022-10-17T13:25:24;6.40;;;1.83;;
27365;SDS011;14837;57.148;-2.144;2022-10-17T13:28:02;4.78;;;1.17;;
27365;SDS011;14837;57.148;-2.144;2022-10-17T13:30:31;8.48;;;1.88;;
27365;SDS011;14837;57.148;-2.144;2022-10-17T13:32:58;8.45;;;2.33;;
27365;SDS011;14837;57.148;-2.144;2022-10-17T13:38:12;5.28;;;1.67;;
27365;SDS011;14837;57.148;-2.144;2022-10-17T13:40:40;6.65;;;1.23;;
27365;SDS011;14837;57.148;-2.144;2022-10-17T13:43:16;5.10;;;1.25;;
27365;SDS011;14837;57.148;-2.144;2022-10-17T13:45:47;5.43;;;1.67;;
27365;SDS011;14837;57.148;-2.144;2022-10-17T13:48:25;9.73;;;2.08;;
27365;SDS011;14837;57.148;-2.144;2022-10-17T13:50:53;7.28;;;2.03;;
27365;SDS011;14837;57.148;-2.144;2022-10-17T13:55:55;4.03;;;2.45;;
27365;SDS011;14837;57.148;-2.144;2022-10-17T13:58:42;9.70;;;1.80;;
27365;SDS011;14837;57.148;-2.144;2022-10-17T14:01:10;8.57;;;2.25;;
27365;SDS011;14837;57.148;-2.144;2022-10-17T14:03:37;4.43;;;1.33;;
27365;SDS011;14837;57.148;-2.144;2022-10-17T14:06:23;5.72;;;1.30;;
27365;SDS011;14837;57.148;-2.144;2022-10-17T14:08:57;5.35;;;1.30;;
27365;SDS011;14837;57.148;-2.144;2022-10-17T14:11:26;5.18;;;1.45;;
27365;SDS011;14837;57.148;-2.144;2022-10-17T14:13:54;6.22;;;1.20;;
27365;SDS011;14837;57.148;-2.144;2022-10-17T14:16:22;5.43;;;1.75;;
27365;SDS011;14837;57.148;-2.144;2022-10-17T14:18:49;6.03;;;1.73;;
27365;SDS011;14837;57.148;-2.144;2022-10-17T14:21:23;4.85;;;1.27;;
27365;SDS011;14837;57.148;-2.144;2022-10-17T14:24:14;6.82;;;1.60;;
27365;SDS011;14837;57.148;-2.144;2022-10-17T14:31:45;7.43;;;1.65;;
27365;SDS011;14837;57.148;-2.144;2022-10-17T14:34:19;6.03;;;1.60;;
27365;SDS011;14837;57.148;-2.144;2022-10-17T14:36:46;3.55;;;1.63;;
27365;SDS011;14837;57.148;-2.144;2022-10-17T14:39:21;4.10;;;1.92;;
27365;SDS011;14837;57.148;-2.144;2022-10-17T14:41:49;3.72;;;1.83;;
27365;SDS011;14837;57.148;-2.144;2022-10-17T14:44:24;2.85;;;1.33;;
27365;SDS011;14837;57.148;-2.144;2022-10-17T14:46:52;7.03;;;1.98;;
27365;SDS011;14837;57.148;-2.144;2022-10-17T14:49:34;8.48;;;2.15;;
27365;SDS011;14837;57.148;-2.144;2022-10-17T14:54:53;3.58;;;1.13;;
27365;SDS011;14837;57.148;-2.144;2022-10-17T14:59:59;3.28;;;0.90;;
27365;SDS011;14837;57.148;-2.144;2022-10-17T15:02:28;12.60;;;2.65;;
27365;SDS011;14837;57.148;-2.144;2022-10-17T15:04:55;3.78;;;1.30;;
27365;SDS011;14837;57.148;-2.144;2022-10-17T15:07:22;3.90;;;1.30;;
27365;SDS011;14837;57.148;-2.144;2022-10-17T15:09:49;3.65;;;1.20;;
27365;SDS011;14837;57.148;-2.144;2022-10-17T15:12:18;3.95;;;1.88;;
27365;SDS011;14837;57.148;-2.144;2022-10-17T15:14:45;4.57;;;1.50;;
27365;SDS011;14837;57.148;-2.144;2022-10-17T15:17:18;6.65;;;2.30;;
27365;SDS011;14837;57.148;-2.144;2022-10-17T15:19:46;5.07;;;2.30;;
27365;SDS011;14837;57.148;-2.144;2022-10-17T15:22:13;6.60;;;2.25;;
27365;SDS011;14837;57.148;-2.144;2022-10-17T15:24:41;4.57;;;1.33;;
27365;SDS011;14837;57.148;-2.144;2022-10-17T15:27:15;3.70;;;1.35;;
27365;SDS011;14837;57.148;-2.144;2022-10-17T15:29:41;5.47;;;1.25;;
27365;SDS011;14837;57.148;-2.144;2022-10-17T15:32:08;4.68;;;1.17;;
27365;SDS011;14837;57.148;-2.144;2022-10-17T15:34:34;3.78;;;1.40;;
27365;SDS011;14837;57.148;-2.144;2022-10-17T15:37:01;3.97;;;1.00;;
27365;SDS011;14837;57.148;-2.144;2022-10-17T15:39:29;4.68;;;0.88;;
27365;SDS011;14837;57.148;-2.144;2022-10-17T15:41:55;1.95;;;1.13;;
27365;SDS011;14837;57.148;-2.144;2022-10-17T15:44:22;3.22;;;0.95;;
27365;SDS011;14837;57.148;-2.144;2022-10-17T15:46:48;3.00;;;1.05;;
27365;SDS011;14837;57.148;-2.144;2022-10-17T15:49:16;2.72;;;1.00;;
27365;SDS011;14837;57.148;-2.144;2022-10-17T15:51:43;3.95;;;1.45;;
27365;SDS011;14837;57.148;-2.144;2022-10-17T15:54:10;3.40;;;0.95;;
27365;SDS011;14837;57.148;-2.144;2022-10-17T15:56:41;4.68;;;0.75;;
27365;SDS011;14837;57.148;-2.144;2022-10-17T15:59:12;2.47;;;0.70;;
27365;SDS011;14837;57.148;-2.144;2022-10-17T16:01:39;2.78;;;1.00;;
27365;SDS011;14837;57.148;-2.144;2022-10-17T16:04:08;2.10;;;0.82;;
27365;SDS011;14837;57.148;-2.144;2022-10-17T16:06:37;1.48;;;0.70;;
27365;SDS011;14837;57.148;-2.144;2022-10-17T16:09:04;3.42;;;0.90;;
27365;SDS011;14837;57.148;-2.144;2022-10-17T16:11:34;2.42;;;0.90;;
27365;SDS011;14837;57.148;-2.144;2022-10-17T16:14:03;4.13;;;1.00;;
27365;SDS011;14837;57.148;-2.144;2022-10-17T16:16:29;3.33;;;1.25;;
27365;SDS011;14837;57.148;-2.144;2022-10-17T16:18:56;2.28;;;0.85;;
27365;SDS011;14837;57.148;-2.144;2022-10-17T16:21:24;2.80;;;0.63;;
27365;SDS011;14837;57.148;-2.144;2022-10-17T16:23:51;2.75;;;1.33;;
27365;SDS011;14837;57.148;-2.144;2022-10-17T16:26:18;1.73;;;0.98;;
27365;SDS011;14837;57.148;-2.144;2022-10-17T16:28:44;3.55;;;1.00;;
27365;SDS011;14837;57.148;-2.144;2022-10-17T16:31:25;4.50;;;1.10;;
27365;SDS011;14837;57.148;-2.144;2022-10-17T16:33:52;2.50;;;1.10;;
27365;SDS011;14837;57.148;-2.144;2022-10-17T16:36:19;3.28;;;0.98;;
27365;SDS011;14837;57.148;-2.144;2022-10-17T16:38:46;1.35;;;0.77;;
27365;SDS011;14837;57.148;-2.144;2022-10-17T16:43:47;2.03;;;0.90;;
27365;SDS011;14837;57.148;-2.144;2022-10-17T16:46:13;1.25;;;0.63;;
27365;SDS011;14837;57.148;-2.144;2022-10-17T16:48:40;2.45;;;1.20;;
27365;SDS011;14837;57.148;-2.144;2022-10-17T16:51:08;10.15;;;1.52;;
27365;SDS011;14837;57.148;-2.144;2022-10-17T16:53:34;4.07;;;1.48;;
27365;SDS011;14837;57.148;-2.144;2022-10-17T16:56:05;3.47;;;1.40;;